createdAt,value
2023-05-07T00:01:39.860Z,13.93
2023-05-07T00:04:06.874Z,15.60
2023-05-07T00:06:34.752Z,16.67
2023-05-07T00:09:01.740Z,16.25
2023-05-07T00:11:29.480Z,18.75
2023-05-07T00:13:56.247Z,18.80
2023-05-07T00:16:23.306Z,17.38
2023-05-07T00:18:49.907Z,20.38
2023-05-07T00:21:17.472Z,21.48
2023-05-07T00:23:44.395Z,19.10
2023-05-07T00:26:11.317Z,19.52
2023-05-07T00:28:38.267Z,16.42
2023-05-07T00:31:05.209Z,13.88
2023-05-07T00:33:32.454Z,19.73
2023-05-07T00:35:59.039Z,18.27
2023-05-07T00:38:26.509Z,17.13
2023-05-07T00:40:53.166Z,17.55
2023-05-07T00:43:20.582Z,14.15
2023-05-07T00:45:47.238Z,16.17
2023-05-07T00:48:15.366Z,15.38
2023-05-07T00:50:42.404Z,17.55
2023-05-07T00:53:09.881Z,20.80
2023-05-07T00:55:37.395Z,20.73
2023-05-07T00:58:04.781Z,17.80
2023-05-07T01:00:31.513Z,21.88
2023-05-07T01:02:59.339Z,16.65
2023-05-07T01:05:28.148Z,20.48
2023-05-07T01:07:57.532Z,20.88
2023-05-07T01:10:25.478Z,16.58
2023-05-07T01:12:53.645Z,17.58
2023-05-07T01:15:20.588Z,19.63
2023-05-07T01:17:48.029Z,20.05
2023-05-07T01:20:21.493Z,15.95
2023-05-07T01:22:51.318Z,23.88
2023-05-07T01:25:18.750Z,14.95
2023-05-07T01:27:50.234Z,19.88
2023-05-07T01:30:19.519Z,18.58
2023-05-07T01:33:01.730Z,17.20
2023-05-07T01:35:33.291Z,14.43
2023-05-07T01:38:01.654Z,16.77
2023-05-07T01:40:28.574Z,17.10
2023-05-07T01:42:55.895Z,15.60
2023-05-07T01:45:24.150Z,19.95
2023-05-07T01:47:52.276Z,15.70
2023-05-07T01:50:21.185Z,21.15
2023-05-07T01:52:52.049Z,19.67
2023-05-07T01:55:18.998Z,17.85
2023-05-07T01:57:46.829Z,24.92
2023-05-07T02:00:13.893Z,16.85
2023-05-07T02:02:45.371Z,16.50
2023-05-07T02:05:24.477Z,20.80
2023-05-07T02:07:59.311Z,21.73
2023-05-07T02:10:28.073Z,15.68
2023-05-07T02:12:55.397Z,19.83
2023-05-07T02:15:22.006Z,20.73
2023-05-07T02:18:16.056Z,20.25
2023-05-07T02:20:42.743Z,19.05
2023-05-07T02:23:10.013Z,18.30
2023-05-07T02:25:36.657Z,16.40
2023-05-07T02:28:03.944Z,22.30
2023-05-07T02:30:42.267Z,16.27
2023-05-07T02:33:10.206Z,20.50
2023-05-07T02:35:36.995Z,15.43
2023-05-07T02:38:04.310Z,18.38
2023-05-07T02:40:34.503Z,18.15
2023-05-07T02:43:01.839Z,21.50
2023-05-07T02:45:29.086Z,16.55
2023-05-07T02:47:56.088Z,15.85
2023-05-07T02:50:23.094Z,16.10
2023-05-07T02:52:50.060Z,17.67
2023-05-07T02:55:16.962Z,15.50
2023-05-07T02:57:44.205Z,18.15
2023-05-07T03:00:12.964Z,14.93
2023-05-07T03:02:43.937Z,16.60
2023-05-07T03:05:10.856Z,15.40
2023-05-07T03:07:38.656Z,18.85
2023-05-07T03:10:06.171Z,15.90
2023-05-07T03:12:33.460Z,20.75
2023-05-07T03:15:00.216Z,15.90
2023-05-07T03:17:27.505Z,17.25
2023-05-07T03:19:54.257Z,17.27
2023-05-07T03:22:21.808Z,12.23
2023-05-07T03:24:48.467Z,17.10
2023-05-07T03:27:15.854Z,13.43
2023-05-07T03:29:43.270Z,16.83
2023-05-07T03:32:10.729Z,13.95
2023-05-07T03:34:37.512Z,15.80
2023-05-07T03:37:05.019Z,14.90
2023-05-07T03:39:32.966Z,17.80
2023-05-07T03:42:00.659Z,15.70
2023-05-07T03:44:27.659Z,17.52
2023-05-07T03:46:54.974Z,20.63
2023-05-07T03:49:22.193Z,14.27
2023-05-07T03:51:49.545Z,14.10
2023-05-07T03:54:16.520Z,17.58
2023-05-07T03:56:45.862Z,12.90
2023-05-07T03:59:13.946Z,18.10
2023-05-07T04:01:43.369Z,17.23
2023-05-07T04:04:16.307Z,17.00
2023-05-07T04:06:43.745Z,16.10
2023-05-07T04:09:11.049Z,14.70
2023-05-07T04:11:41.345Z,14.55
2023-05-07T04:14:10.138Z,12.48
2023-05-07T04:16:38.109Z,13.38
2023-05-07T04:19:05.162Z,16.60
2023-05-07T04:21:32.658Z,12.90
2023-05-07T04:24:00.132Z,16.13
2023-05-07T04:26:26.730Z,14.65
2023-05-07T04:28:53.983Z,14.55
2023-05-07T04:31:20.781Z,13.43
2023-05-07T04:33:52.764Z,15.55
2023-05-07T04:36:19.815Z,14.43
2023-05-07T04:38:52.312Z,12.93
2023-05-07T04:41:20.659Z,13.43
2023-05-07T04:43:47.840Z,12.88
2023-05-07T04:46:16.211Z,12.50
2023-05-07T04:48:44.211Z,16.70
2023-05-07T04:51:11.772Z,14.93
2023-05-07T04:53:39.376Z,13.73
2023-05-07T04:56:06.225Z,12.73
2023-05-07T04:58:39.997Z,13.80
2023-05-07T05:01:07.086Z,11.40
2023-05-07T05:03:34.495Z,11.30
2023-05-07T05:06:01.396Z,12.48
2023-05-07T05:08:32.721Z,9.43
2023-05-07T05:11:03.075Z,10.27
2023-05-07T05:13:31.759Z,16.35
2023-05-07T05:15:58.870Z,9.25
2023-05-07T05:18:27.630Z,13.18
2023-05-07T05:20:54.356Z,18.42
2023-05-07T05:23:21.989Z,13.50
2023-05-07T05:25:48.867Z,12.27
2023-05-07T05:28:16.771Z,12.55
2023-05-07T05:30:43.419Z,9.98
2023-05-07T05:33:10.683Z,11.43
2023-05-07T05:35:37.369Z,13.23
2023-05-07T05:38:07.875Z,9.48
2023-05-07T05:40:34.749Z,12.52
2023-05-07T05:43:02.341Z,8.65
2023-05-07T05:45:29.141Z,10.70
2023-05-07T05:47:58.150Z,12.18
2023-05-07T05:50:24.851Z,9.00
2023-05-07T05:52:53.004Z,8.57
2023-05-07T05:55:21.147Z,7.13
2023-05-07T05:57:49.253Z,8.52
2023-05-07T06:00:16.955Z,9.10
2023-05-07T06:02:47.434Z,8.63
2023-05-07T06:05:20.304Z,10.32
2023-05-07T06:07:50.750Z,9.90
2023-05-07T06:10:17.567Z,12.20
2023-05-07T06:12:45.788Z,17.08
2023-05-07T06:15:13.104Z,11.98
2023-05-07T06:17:41.686Z,12.70
2023-05-07T06:20:10.463Z,10.82
2023-05-07T06:22:39.090Z,13.48
2023-05-07T06:25:06.478Z,9.82
2023-05-07T06:27:34.014Z,11.18
2023-05-07T06:30:01.164Z,10.02
2023-05-07T06:32:28.456Z,8.95
2023-05-07T06:34:56.518Z,10.07
2023-05-07T06:37:23.998Z,12.25
2023-05-07T06:40:03.634Z,10.88
2023-05-07T06:42:32.483Z,10.05
2023-05-07T06:45:16.331Z,9.55
2023-05-07T06:47:44.324Z,15.00
2023-05-07T06:50:11.601Z,10.02
2023-05-07T06:52:39.644Z,9.40
2023-05-07T06:55:07.617Z,14.23
2023-05-07T06:57:34.857Z,6.68
2023-05-07T07:00:01.812Z,7.65
2023-05-07T07:02:30.457Z,10.45
2023-05-07T07:04:57.344Z,6.78
2023-05-07T07:07:24.901Z,7.95
2023-05-07T07:09:52.397Z,14.13
2023-05-07T07:12:20.271Z,7.35
2023-05-07T07:14:47.530Z,8.25
2023-05-07T07:17:15.464Z,8.07
2023-05-07T07:19:42.086Z,9.02
2023-05-07T07:22:10.177Z,12.73
2023-05-07T07:24:37.040Z,8.45
2023-05-07T07:27:07.249Z,7.60
2023-05-07T07:29:35.001Z,8.75
2023-05-07T07:32:02.844Z,11.60
2023-05-07T07:34:29.847Z,9.55
2023-05-07T07:36:57.490Z,12.55
2023-05-07T07:39:25.028Z,11.55
2023-05-07T07:41:55.033Z,10.18
2023-05-07T07:44:22.258Z,8.50
2023-05-07T07:46:54.098Z,8.07
2023-05-07T07:49:22.417Z,12.48
2023-05-07T07:51:50.208Z,9.38
2023-05-07T07:54:17.421Z,8.05
2023-05-07T07:56:45.013Z,9.52
2023-05-07T07:59:15.486Z,8.13
2023-05-07T08:01:42.981Z,12.05
2023-05-07T08:04:10.087Z,7.10
2023-05-07T08:06:40.945Z,10.45
2023-05-07T08:09:09.375Z,9.95
2023-05-07T08:11:37.979Z,10.40
2023-05-07T08:14:05.860Z,8.27
2023-05-07T08:16:33.420Z,8.52
2023-05-07T08:19:01.240Z,7.35
2023-05-07T08:21:28.466Z,8.05
2023-05-07T08:23:55.130Z,7.57
2023-05-07T08:26:22.387Z,10.70
2023-05-07T08:28:49.299Z,7.57
2023-05-07T08:31:16.096Z,10.60
2023-05-07T08:33:44.672Z,8.77
2023-05-07T08:36:11.963Z,6.80
2023-05-07T08:38:39.109Z,6.80
2023-05-07T08:41:08.466Z,5.80
2023-05-07T08:43:38.800Z,8.30
2023-05-07T08:46:10.512Z,6.95
2023-05-07T08:48:41.820Z,9.38
2023-05-07T08:51:15.038Z,6.90
2023-05-07T08:53:42.955Z,6.97
2023-05-07T08:56:14.485Z,5.47
2023-05-07T08:58:41.358Z,13.40
2023-05-07T09:01:11.507Z,7.43
2023-05-07T09:03:39.324Z,7.72
2023-05-07T09:06:07.038Z,9.20
2023-05-07T09:08:34.954Z,6.88
2023-05-07T09:11:04.291Z,8.13
2023-05-07T09:13:31.235Z,10.35
2023-05-07T09:16:10.596Z,9.40
2023-05-07T09:18:44.554Z,8.38
2023-05-07T09:21:17.351Z,9.30
2023-05-07T09:23:45.257Z,8.23
2023-05-07T09:26:13.244Z,6.35
2023-05-07T09:28:42.933Z,7.60
2023-05-07T09:31:13.385Z,6.72
2023-05-07T09:33:41.183Z,7.53
2023-05-07T09:36:11.043Z,7.80
2023-05-07T09:38:40.921Z,5.50
2023-05-07T09:41:14.209Z,6.90
2023-05-07T09:43:54.838Z,9.65
2023-05-07T09:46:31.243Z,8.45
2023-05-07T09:49:02.355Z,8.23
2023-05-07T09:51:51.631Z,5.40
2023-05-07T09:54:20.247Z,7.90
2023-05-07T09:56:50.225Z,9.98
2023-05-07T09:59:19.583Z,7.63
2023-05-07T10:01:47.505Z,8.73
2023-05-07T10:04:15.499Z,6.78
2023-05-07T10:06:46.201Z,6.35
2023-05-07T10:09:14.641Z,5.30
2023-05-07T10:11:42.238Z,5.88
2023-05-07T10:14:10.201Z,5.55
2023-05-07T10:16:38.075Z,7.95
2023-05-07T10:19:13.080Z,10.35
2023-05-07T10:21:55.129Z,4.78
2023-05-07T10:24:27.462Z,4.97
2023-05-07T10:26:57.955Z,2.75
2023-05-07T10:29:28.065Z,10.63
2023-05-07T10:32:25.697Z,6.18
2023-05-07T10:34:56.112Z,4.13
2023-05-07T10:37:24.862Z,3.70
2023-05-07T10:39:53.150Z,6.78
2023-05-07T10:42:20.723Z,6.43
2023-05-07T10:44:52.452Z,5.18
2023-05-07T10:47:24.890Z,4.75
2023-05-07T10:49:56.513Z,7.90
2023-05-07T10:52:27.962Z,9.73
2023-05-07T10:55:18.854Z,5.22
2023-05-07T10:57:56.967Z,7.88
2023-05-07T11:03:03.024Z,6.38
2023-05-07T11:05:38.633Z,6.78
2023-05-07T11:08:25.766Z,4.78
2023-05-07T11:10:59.682Z,6.40
2023-05-07T11:13:51.241Z,6.38
2023-05-07T11:16:40.077Z,4.82
2023-05-07T11:19:17.781Z,8.32
2023-05-07T11:21:49.807Z,8.23
2023-05-07T11:24:43.173Z,9.32
2023-05-07T11:27:12.938Z,8.07
2023-05-07T11:29:39.666Z,5.13
2023-05-07T11:32:11.559Z,7.15
2023-05-07T11:34:46.285Z,5.07
2023-05-07T11:37:19.045Z,4.65
2023-05-07T11:39:55.459Z,3.92
2023-05-07T11:42:30.663Z,4.60
2023-05-07T11:44:57.941Z,5.95
2023-05-07T11:47:26.432Z,6.05
2023-05-07T11:49:54.963Z,8.88
2023-05-07T11:52:24.190Z,4.03
2023-05-07T11:54:55.894Z,2.10
2023-05-07T11:57:27.613Z,4.25
2023-05-07T11:59:58.507Z,3.65
2023-05-07T12:02:26.570Z,5.30
2023-05-07T12:04:53.886Z,2.63
2023-05-07T12:07:21.774Z,4.05
2023-05-07T12:09:48.907Z,2.90
2023-05-07T12:12:18.434Z,4.88
2023-05-07T12:14:47.136Z,3.28
2023-05-07T12:17:15.902Z,3.70
2023-05-07T12:19:44.453Z,3.38
2023-05-07T12:22:12.358Z,5.82
2023-05-07T12:24:50.634Z,3.67
2023-05-07T12:27:18.921Z,2.17
2023-05-07T12:29:48.169Z,2.55
2023-05-07T12:32:20.386Z,2.00
2023-05-07T12:34:47.978Z,3.15
2023-05-07T12:37:15.028Z,3.88
2023-05-07T12:40:05.146Z,4.05
2023-05-07T12:42:36.526Z,3.50
2023-05-07T12:45:14.714Z,3.10
2023-05-07T12:47:49.117Z,2.63
2023-05-07T12:50:17.053Z,5.20
2023-05-07T12:52:46.263Z,6.28
2023-05-07T12:55:16.156Z,2.78
2023-05-07T12:57:46.775Z,5.10
2023-05-07T13:00:14.209Z,6.07
2023-05-07T13:02:43.218Z,10.88
2023-05-07T13:05:10.317Z,6.70
2023-05-07T13:07:38.664Z,4.82
2023-05-07T13:10:05.981Z,4.57
2023-05-07T13:12:33.728Z,5.90
2023-05-07T13:15:00.382Z,3.83
2023-05-07T13:17:27.787Z,3.50
2023-05-07T13:19:54.526Z,5.68
2023-05-07T13:22:21.773Z,2.92
2023-05-07T13:24:48.393Z,4.25
2023-05-07T13:27:15.740Z,4.95
2023-05-07T13:29:42.329Z,5.50
2023-05-07T13:32:09.636Z,5.78
2023-05-07T13:34:36.406Z,10.32
2023-05-07T13:37:03.691Z,3.58
2023-05-07T13:39:30.365Z,3.63
2023-05-07T13:41:57.659Z,6.95
2023-05-07T13:44:24.428Z,6.55
2023-05-07T13:46:52.478Z,6.28
2023-05-07T13:49:19.087Z,6.78
2023-05-07T13:51:46.619Z,8.18
2023-05-07T13:54:13.262Z,15.85
2023-05-07T13:56:40.839Z,13.07
2023-05-07T13:59:07.500Z,20.23
2023-05-07T14:01:34.925Z,17.85
2023-05-07T14:04:01.783Z,11.77
2023-05-07T14:06:29.100Z,8.82
2023-05-07T14:08:55.772Z,10.00
2023-05-07T14:11:23.020Z,6.13
2023-05-07T14:13:49.689Z,7.47
2023-05-07T14:16:16.985Z,5.35
2023-05-07T14:18:43.608Z,6.07
2023-05-07T14:21:11.082Z,5.43
2023-05-07T14:23:37.697Z,7.07
2023-05-07T14:26:04.724Z,4.43
2023-05-07T14:28:31.451Z,3.97
2023-05-07T14:30:59.212Z,8.82
2023-05-07T14:33:26.122Z,8.02
2023-05-07T14:35:53.395Z,10.23
2023-05-07T14:38:20.783Z,15.93
2023-05-07T14:40:48.067Z,10.18
2023-05-07T14:43:14.760Z,4.97
2023-05-07T14:45:42.528Z,8.52
2023-05-07T14:48:10.278Z,10.02
2023-05-07T14:50:37.660Z,10.13
2023-05-07T14:53:04.741Z,11.18
2023-05-07T14:55:33.494Z,5.60
2023-05-07T14:58:02.035Z,6.63
2023-05-07T15:00:29.830Z,8.45
2023-05-07T15:03:09.892Z,10.25
2023-05-07T15:05:37.569Z,5.40
2023-05-07T15:08:04.346Z,6.45
2023-05-07T15:10:31.730Z,7.75
2023-05-07T15:12:58.390Z,8.55
2023-05-07T15:15:25.688Z,9.02
2023-05-07T15:17:53.858Z,9.40
2023-05-07T15:20:21.346Z,8.52
2023-05-07T15:22:48.027Z,8.93
2023-05-07T15:25:15.661Z,13.57
2023-05-07T15:27:43.653Z,7.55
2023-05-07T15:30:12.164Z,14.05
2023-05-07T15:32:39.217Z,9.02
2023-05-07T15:35:07.868Z,9.23
2023-05-07T15:37:34.983Z,7.35
2023-05-07T15:40:03.654Z,8.20
2023-05-07T15:42:30.704Z,12.60
2023-05-07T15:44:57.986Z,9.43
2023-05-07T15:47:24.644Z,12.77
2023-05-07T15:49:51.903Z,11.85
2023-05-07T15:52:18.781Z,11.55
2023-05-07T15:54:46.093Z,8.40
2023-05-07T15:57:12.784Z,7.70
2023-05-07T15:59:40.268Z,11.38
2023-05-07T16:02:08.145Z,8.98
2023-05-07T16:04:35.969Z,7.30
2023-05-07T16:07:02.696Z,6.03
2023-05-07T16:09:30.117Z,9.15
2023-05-07T16:11:56.799Z,9.32
2023-05-07T16:14:24.619Z,7.45
2023-05-07T16:16:51.700Z,7.55
2023-05-07T16:19:20.168Z,11.73
2023-05-07T16:21:47.068Z,7.63
2023-05-07T16:24:14.034Z,7.78
2023-05-07T16:26:40.704Z,6.38
2023-05-07T16:29:07.760Z,11.85
2023-05-07T16:31:34.518Z,9.20
2023-05-07T16:34:01.918Z,9.02
2023-05-07T16:36:28.996Z,10.88
2023-05-07T16:38:56.002Z,12.80
2023-05-07T16:41:23.146Z,9.90
2023-05-07T16:43:50.381Z,6.43
2023-05-07T16:46:17.146Z,8.20
2023-05-07T16:48:44.421Z,7.88
2023-05-07T16:51:11.150Z,8.32
2023-05-07T16:53:38.107Z,10.40
2023-05-07T16:56:05.773Z,7.65
2023-05-07T16:58:33.598Z,6.38
2023-05-07T17:01:02.227Z,6.88
2023-05-07T17:03:29.795Z,6.80
2023-05-07T17:05:58.676Z,7.50
2023-05-07T17:08:25.537Z,6.95
2023-05-07T17:10:52.836Z,9.15
2023-05-07T17:13:19.547Z,6.03
2023-05-07T17:15:47.846Z,6.50
2023-05-07T17:18:14.745Z,10.05
2023-05-07T17:20:42.279Z,8.32
2023-05-07T17:23:08.897Z,8.30
2023-05-07T17:25:39.346Z,6.05
2023-05-07T17:28:05.997Z,7.28
2023-05-07T17:30:33.230Z,7.70
2023-05-07T17:33:09.222Z,5.57
2023-05-07T17:35:44.459Z,6.47
2023-05-07T17:38:11.144Z,9.38
2023-05-07T17:40:38.480Z,13.52
2023-05-07T17:43:05.099Z,11.23
2023-05-07T17:45:33.292Z,13.20
2023-05-07T17:48:00.145Z,98.22
2023-05-07T17:50:27.190Z,216.23
2023-05-07T17:52:53.916Z,83.22
2023-05-07T17:55:21.360Z,27.55
2023-05-07T17:57:48.086Z,19.85
2023-05-07T18:00:15.660Z,14.32
2023-05-07T18:02:42.342Z,12.60
2023-05-07T18:05:10.000Z,17.70
2023-05-07T18:07:36.882Z,17.17
2023-05-07T18:10:04.937Z,14.65
2023-05-07T18:12:31.602Z,19.75
2023-05-07T18:14:59.013Z,17.95
2023-05-07T18:17:28.358Z,16.85
2023-05-07T18:19:55.597Z,19.88
2023-05-07T18:22:22.398Z,19.55
2023-05-07T18:24:49.679Z,16.73
2023-05-07T18:27:17.043Z,15.23
2023-05-07T18:29:43.724Z,14.93
2023-05-07T18:32:11.096Z,26.65
2023-05-07T18:34:37.793Z,28.50
2023-05-07T18:37:04.890Z,26.25
2023-05-07T18:39:32.022Z,32.75
2023-05-07T18:42:00.196Z,23.77
2023-05-07T18:44:26.855Z,22.35
2023-05-07T18:46:54.139Z,21.00
2023-05-07T18:49:20.806Z,24.73
2023-05-07T18:51:47.949Z,31.73
2023-05-07T18:54:14.576Z,26.73
2023-05-07T18:56:42.635Z,25.58
2023-05-07T18:59:09.527Z,19.63
2023-05-07T19:01:36.632Z,14.82
2023-05-07T19:04:03.362Z,19.92
2023-05-07T19:06:33.393Z,17.38
2023-05-07T19:09:00.461Z,19.98
2023-05-07T19:11:27.607Z,21.55
2023-05-07T19:13:54.434Z,19.80
2023-05-07T19:16:21.274Z,16.95
2023-05-07T19:18:48.280Z,20.58
2023-05-07T19:21:15.239Z,18.17
2023-05-07T19:23:42.067Z,16.83
2023-05-07T19:26:10.262Z,17.65
2023-05-07T19:28:45.116Z,20.27
2023-05-07T19:31:23.440Z,19.55
2023-05-07T19:33:50.141Z,20.77
2023-05-07T19:36:17.239Z,20.60
2023-05-07T19:38:45.010Z,22.90
2023-05-07T19:41:12.630Z,21.15
2023-05-07T19:43:39.852Z,23.75
2023-05-07T19:46:07.070Z,20.35
2023-05-07T19:48:33.801Z,22.60
2023-05-07T19:51:00.858Z,22.83
2023-05-07T19:53:29.943Z,22.70
2023-05-07T19:56:06.658Z,21.63
2023-05-07T19:58:33.984Z,24.58
2023-05-07T20:01:01.543Z,23.77
2023-05-07T20:03:33.032Z,26.00
2023-05-07T20:06:00.098Z,26.98
2023-05-07T20:08:28.511Z,29.67
2023-05-07T20:10:58.143Z,25.52
2023-05-07T20:13:27.370Z,27.27
2023-05-07T20:16:01.198Z,26.77
2023-05-07T20:18:29.528Z,24.00
2023-05-07T20:20:56.560Z,32.25
2023-05-07T20:23:24.159Z,26.48
2023-05-07T20:25:51.194Z,24.70
2023-05-07T20:28:18.330Z,26.50
2023-05-07T20:30:45.169Z,24.80
2023-05-07T20:33:13.008Z,26.15
2023-05-07T20:35:40.043Z,23.58
2023-05-07T20:38:07.114Z,23.83
2023-05-07T20:40:36.849Z,17.15
2023-05-07T20:43:06.733Z,17.98
2023-05-07T20:45:33.523Z,22.38
2023-05-07T20:48:01.016Z,21.52
2023-05-07T20:50:28.058Z,15.00
2023-05-07T20:52:55.023Z,16.33
2023-05-07T20:55:21.918Z,18.65
2023-05-07T20:57:49.322Z,15.63
2023-05-07T21:00:17.229Z,17.73
2023-05-07T21:02:47.751Z,16.17
2023-05-07T21:05:14.411Z,20.58
2023-05-07T21:07:41.725Z,18.42
2023-05-07T21:10:08.849Z,23.63
2023-05-07T21:12:36.530Z,26.00
2023-05-07T21:15:03.691Z,20.65
2023-05-07T21:17:33.250Z,21.55
2023-05-07T21:19:59.907Z,21.33
2023-05-07T21:22:27.133Z,21.23
2023-05-07T21:24:53.719Z,22.85
2023-05-07T21:27:21.010Z,24.70
2023-05-07T21:29:47.740Z,21.60
2023-05-07T21:32:15.007Z,27.77
2023-05-07T21:34:41.923Z,21.83
2023-05-07T21:37:09.202Z,25.27
2023-05-07T21:39:35.814Z,23.17
2023-05-07T21:42:03.596Z,22.63
2023-05-07T21:44:31.638Z,22.30
2023-05-07T21:46:58.885Z,19.48
2023-05-07T21:49:25.596Z,18.17
2023-05-07T21:51:52.959Z,18.70
2023-05-07T21:54:19.706Z,18.48
2023-05-07T21:56:48.674Z,20.50
2023-05-07T21:59:16.538Z,18.42
2023-05-07T22:01:43.904Z,18.42
2023-05-07T22:04:10.996Z,16.10
2023-05-07T22:06:38.458Z,17.52
2023-05-07T22:09:05.203Z,16.40
2023-05-07T22:11:32.434Z,17.63
2023-05-07T22:13:59.087Z,18.05
2023-05-07T22:16:26.438Z,18.85
2023-05-07T22:18:53.116Z,21.55
2023-05-07T22:21:20.531Z,22.83
2023-05-07T22:23:47.158Z,20.80
2023-05-07T22:26:15.105Z,19.95
2023-05-07T22:28:41.942Z,16.80
2023-05-07T22:31:09.310Z,18.88
2023-05-07T22:33:36.009Z,19.00
2023-05-07T22:36:03.454Z,19.73
2023-05-07T22:38:30.221Z,20.88
2023-05-07T22:40:58.744Z,20.83
2023-05-07T22:43:25.470Z,19.27
2023-05-07T22:46:01.290Z,20.48
2023-05-07T22:48:32.630Z,18.30
2023-05-07T22:51:00.142Z,18.75
2023-05-07T22:53:26.782Z,19.30
2023-05-07T22:55:54.101Z,20.88
2023-05-07T22:58:20.715Z,20.60
2023-05-07T23:00:48.134Z,21.67
2023-05-07T23:03:14.859Z,20.35
2023-05-07T23:05:42.164Z,22.42
2023-05-07T23:08:08.761Z,26.77
2023-05-07T23:10:36.150Z,21.73
2023-05-07T23:13:02.874Z,23.08
2023-05-07T23:15:30.384Z,27.70
2023-05-07T23:17:57.059Z,29.65
2023-05-07T23:20:24.341Z,25.40
2023-05-07T23:22:51.014Z,26.27
2023-05-07T23:25:18.355Z,25.65
2023-05-07T23:27:45.330Z,25.02
2023-05-07T23:30:13.040Z,26.90
2023-05-07T23:32:39.948Z,27.80
2023-05-07T23:35:08.393Z,29.50
2023-05-07T23:37:35.476Z,26.35
2023-05-07T23:40:02.849Z,26.95
2023-05-07T23:42:29.469Z,30.27
2023-05-07T23:44:57.085Z,30.48
2023-05-07T23:47:24.178Z,30.45
2023-05-07T23:49:51.528Z,28.92
2023-05-07T23:52:18.194Z,33.25
2023-05-07T23:54:45.510Z,29.63
2023-05-07T23:57:12.181Z,28.20
2023-05-07T23:59:39.380Z,29.48
